createdAt,value
2022-09-11T00:00:59.422Z,0.93
2022-09-11T00:05:00.938Z,1.10
2022-09-11T00:09:05.643Z,1.40
2022-09-11T00:13:07.943Z,1.13
2022-09-11T00:17:09.354Z,1.30
2022-09-11T00:21:10.741Z,1.23
2022-09-11T00:25:12.165Z,1.27
2022-09-11T00:29:13.624Z,1.20
2022-09-11T00:33:16.007Z,1.25
2022-09-11T00:37:17.419Z,1.25
2022-09-11T00:41:26.125Z,1.40
2022-09-11T00:45:28.209Z,1.77
2022-09-11T00:49:34.786Z,1.20
2022-09-11T00:53:37.303Z,1.13
2022-09-11T00:57:42.488Z,1.48
2022-09-11T01:01:43.945Z,1.30
2022-09-11T01:05:46.152Z,1.13
2022-09-11T01:09:47.794Z,1.40
2022-09-11T01:14:02.139Z,1.27
2022-09-11T01:18:13.255Z,1.20
2022-09-11T01:22:31.421Z,1.30
2022-09-11T01:27:03.027Z,1.95
2022-09-11T01:31:11.189Z,1.20
2022-09-11T01:35:34.640Z,1.52
2022-09-11T01:39:44.968Z,1.38
2022-09-11T01:43:56.890Z,1.40
2022-09-11T01:47:59.962Z,1.23
2022-09-11T01:52:05.552Z,1.83
2022-09-11T01:56:10.559Z,1.55
2022-09-11T02:00:14.502Z,1.40
2022-09-11T02:04:20.099Z,1.70
2022-09-11T02:08:31.370Z,1.67
2022-09-11T02:12:45.072Z,2.15
2022-09-11T02:16:58.469Z,1.30
2022-09-11T02:20:59.870Z,1.40
2022-09-11T02:25:03.026Z,1.50
2022-09-11T02:29:05.178Z,1.42
2022-09-11T02:33:06.805Z,1.20
2022-09-11T02:37:28.296Z,1.60
2022-09-11T02:41:42.023Z,1.17
2022-09-11T02:45:54.501Z,1.45
2022-09-11T02:50:09.269Z,1.40
2022-09-11T02:54:21.835Z,1.63
2022-09-11T02:58:27.112Z,1.70
2022-09-11T03:02:30.644Z,1.70
2022-09-11T03:06:32.846Z,1.63
2022-09-11T03:10:34.723Z,1.70
2022-09-11T03:14:36.768Z,1.40
2022-09-11T03:18:38.413Z,1.63
2022-09-11T03:22:39.777Z,1.92
2022-09-11T03:26:41.528Z,1.58
2022-09-11T03:30:42.915Z,1.92
2022-09-11T03:34:44.394Z,1.60
2022-09-11T03:38:45.821Z,1.92
2022-09-11T03:42:47.248Z,2.60
2022-09-11T03:46:48.892Z,2.05
2022-09-11T03:50:50.403Z,2.20
2022-09-11T03:54:51.840Z,2.05
2022-09-11T03:58:57.456Z,1.77
2022-09-11T04:02:59.399Z,2.30
2022-09-11T04:07:00.891Z,2.42
2022-09-11T04:11:06.716Z,1.63
2022-09-11T04:15:08.566Z,2.17
2022-09-11T04:19:11.499Z,3.15
2022-09-11T04:23:12.890Z,2.75
2022-09-11T04:27:14.364Z,2.20
2022-09-11T04:31:16.965Z,2.60
2022-09-11T04:35:19.179Z,2.58
2022-09-11T04:39:20.552Z,2.60
2022-09-11T04:43:22.082Z,2.97
2022-09-11T04:47:23.524Z,3.10
2022-09-11T04:51:29.195Z,2.95
2022-09-11T04:55:30.727Z,2.95
2022-09-11T04:59:32.198Z,3.83
2022-09-11T05:03:33.746Z,2.88
2022-09-11T05:07:36.085Z,3.63
2022-09-11T05:11:41.049Z,3.65
2022-09-11T05:15:43.752Z,3.40
2022-09-11T05:19:45.216Z,4.70
2022-09-11T05:23:51.621Z,3.53
2022-09-11T05:27:53.079Z,3.70
2022-09-11T05:32:00.283Z,4.00
2022-09-11T05:36:05.180Z,3.40
2022-09-11T05:40:07.248Z,3.90
2022-09-11T05:44:08.642Z,4.30
2022-09-11T05:48:10.365Z,4.40
2022-09-11T05:52:14.176Z,4.15
2022-09-11T05:56:20.674Z,4.28
2022-09-11T06:00:22.095Z,5.03
2022-09-11T06:04:23.477Z,4.32
2022-09-11T06:08:24.842Z,3.63
2022-09-11T06:12:28.321Z,4.28
2022-09-11T06:16:31.692Z,4.75
2022-09-11T06:20:33.120Z,4.10
2022-09-11T06:24:34.593Z,3.88
2022-09-11T06:28:39.918Z,4.07
2022-09-11T06:33:09.418Z,4.13
2022-09-11T06:37:10.791Z,4.10
2022-09-11T06:41:16.310Z,4.65
2022-09-11T06:45:17.854Z,5.05
2022-09-11T06:49:22.377Z,5.80
2022-09-11T06:53:33.091Z,4.50
2022-09-11T06:57:39.863Z,5.07
2022-09-11T07:01:44.116Z,4.78
2022-09-11T07:05:50.376Z,4.95
2022-09-11T07:09:53.474Z,5.30
2022-09-11T07:13:55.145Z,5.45
2022-09-11T07:17:59.971Z,5.03
2022-09-11T07:27:39.550Z,5.07
2022-09-11T07:37:11.386Z,5.80
2022-09-11T07:41:14.553Z,5.13
2022-09-11T07:45:20.882Z,5.75
2022-09-11T07:49:24.080Z,6.30
2022-09-11T07:53:34.821Z,5.43
2022-09-11T07:57:36.342Z,5.38
2022-09-11T08:01:37.783Z,5.60
2022-09-11T08:05:39.238Z,6.70
2022-09-11T08:09:40.628Z,6.60
2022-09-11T08:13:43.083Z,6.75
2022-09-11T08:17:44.659Z,7.22
2022-09-11T08:21:47.814Z,5.78
2022-09-11T08:25:51.038Z,6.63
2022-09-11T08:29:54.225Z,7.80
2022-09-11T08:33:58.884Z,7.30
2022-09-11T08:38:00.392Z,7.03
2022-09-11T08:42:11.192Z,7.80
2022-09-11T08:46:12.645Z,7.60
2022-09-11T08:50:23.351Z,7.20
2022-09-11T08:54:27.663Z,7.13
2022-09-11T08:58:52.542Z,6.18
2022-09-11T09:03:20.802Z,6.85
2022-09-11T09:07:25.022Z,6.90
2022-09-11T09:11:56.821Z,6.38
2022-09-11T09:16:07.425Z,6.13
2022-09-11T09:20:13.854Z,6.38
2022-09-11T09:24:21.289Z,5.03
2022-09-11T09:28:44.594Z,6.13
2022-09-11T09:32:51.982Z,4.78
2022-09-11T09:37:08.272Z,6.28
2022-09-11T09:41:21.334Z,4.93
2022-09-11T09:45:55.191Z,5.03
2022-09-11T09:49:58.373Z,6.10
2022-09-11T09:54:03.189Z,4.88
2022-09-11T09:58:04.664Z,5.05
2022-09-11T10:02:06.316Z,5.70
2022-09-11T10:06:10.107Z,5.15
2022-09-11T10:10:44.003Z,6.13
2022-09-11T10:15:00.248Z,6.07
2022-09-11T10:19:01.761Z,6.25
2022-09-11T10:23:25.816Z,6.97
2022-09-11T10:27:29.116Z,5.65
2022-09-11T10:31:30.684Z,5.85
2022-09-11T10:35:34.142Z,6.72
2022-09-11T10:40:08.976Z,5.85
2022-09-11T10:44:15.744Z,6.80
2022-09-11T10:48:22.463Z,7.43
2022-09-11T10:52:26.382Z,8.27
2022-09-11T10:56:31.543Z,6.18
2022-09-11T11:00:35.974Z,7.07
2022-09-11T11:04:37.392Z,6.40
2022-09-11T11:09:01.786Z,6.55
2022-09-11T11:13:36.086Z,5.57
2022-09-11T11:18:14.164Z,6.03
2022-09-11T11:22:34.471Z,5.47
2022-09-11T11:26:45.029Z,4.95
2022-09-11T11:30:55.746Z,5.07
2022-09-11T11:35:19.263Z,6.45
2022-09-11T11:39:40.201Z,6.15
2022-09-11T11:43:43.201Z,5.20
2022-09-11T11:47:47.341Z,5.97
2022-09-11T11:52:00.736Z,6.45
2022-09-11T11:56:14.885Z,5.25
2022-09-11T12:00:17.706Z,5.35
2022-09-11T12:04:38.163Z,5.28
2022-09-11T12:08:46.104Z,5.03
2022-09-11T12:12:53.136Z,5.20
2022-09-11T12:16:56.211Z,4.40
2022-09-11T12:21:25.426Z,4.32
2022-09-11T12:25:32.953Z,4.68
2022-09-11T12:29:40.295Z,4.47
2022-09-11T12:33:41.813Z,4.30
2022-09-11T12:37:51.026Z,4.00
2022-09-11T12:42:23.967Z,4.35
2022-09-11T12:46:28.225Z,4.40
2022-09-11T12:50:29.677Z,3.65
2022-09-11T12:54:39.003Z,3.50
2022-09-11T12:58:42.163Z,3.22
2022-09-11T13:02:46.639Z,3.97
2022-09-11T13:06:56.709Z,4.30
2022-09-11T13:11:36.616Z,4.40
2022-09-11T13:15:47.468Z,4.20
2022-09-11T13:19:48.898Z,3.63
2022-09-11T13:23:50.982Z,4.07
2022-09-11T13:28:06.886Z,3.83
2022-09-11T13:32:16.841Z,4.40
2022-09-11T13:36:39.234Z,4.20
2022-09-11T13:40:43.828Z,4.25
2022-09-11T13:44:52.099Z,4.25
2022-09-11T13:49:21.611Z,4.35
2022-09-11T13:58:38.789Z,3.53
2022-09-11T14:08:29.110Z,4.07
2022-09-11T14:13:26.783Z,3.80
2022-09-11T14:17:31.507Z,3.90
2022-09-11T14:22:30.433Z,3.72
2022-09-11T14:32:36.309Z,3.92
2022-09-11T14:36:43.187Z,3.85
2022-09-11T14:40:58.830Z,3.63
2022-09-11T14:45:13.280Z,4.10
2022-09-11T14:49:20.143Z,4.97
2022-09-11T14:53:38.035Z,3.73
2022-09-11T14:57:42.639Z,4.15
2022-09-11T15:01:47.973Z,3.60
2022-09-11T15:05:54.721Z,3.35
2022-09-11T15:09:56.387Z,4.00
2022-09-11T15:14:14.808Z,4.28
2022-09-11T15:18:24.681Z,3.67
2022-09-11T15:26:55.114Z,4.05
2022-09-11T15:31:12.597Z,4.15
2022-09-11T15:39:34.213Z,3.85
2022-09-11T15:43:51.936Z,4.22
2022-09-11T15:47:53.371Z,4.03
2022-09-11T15:51:55.457Z,4.00
2022-09-11T15:56:04.172Z,4.05
2022-09-11T16:00:12.926Z,3.78
2022-09-11T16:04:18.976Z,3.30
2022-09-11T16:08:22.807Z,3.75
2022-09-11T16:12:25.535Z,4.10
2022-09-11T16:16:27.198Z,4.15
2022-09-11T16:20:28.629Z,3.72
2022-09-11T16:24:31.652Z,3.40
2022-09-11T16:28:34.569Z,3.75
2022-09-11T16:32:39.157Z,4.53
2022-09-11T16:41:07.795Z,4.18
2022-09-11T16:45:10.222Z,4.10
2022-09-11T16:49:16.544Z,3.53
2022-09-11T16:53:18.038Z,4.20
2022-09-11T16:57:20.286Z,4.30
2022-09-11T17:01:24.255Z,3.78
2022-09-11T17:05:26.556Z,3.65
2022-09-11T17:09:28.084Z,4.18
2022-09-11T17:13:29.524Z,3.55
2022-09-11T17:17:31.347Z,5.10
2022-09-11T17:21:37.125Z,4.70
2022-09-11T17:25:43.376Z,4.50
2022-09-11T17:29:45.114Z,5.00
2022-09-11T17:33:47.348Z,4.80
2022-09-11T17:37:48.865Z,4.40
2022-09-11T17:41:50.472Z,5.20
2022-09-11T17:46:17.758Z,5.03
2022-09-11T17:55:39.297Z,5.18
2022-09-11T18:11:19.329Z,5.40
2022-09-11T18:19:59.394Z,5.95
2022-09-11T18:38:38.169Z,5.40
2022-09-11T18:47:19.298Z,6.65
2022-09-11T18:51:57.218Z,6.88
2022-09-11T19:06:09.046Z,5.85
2022-09-11T19:10:11.715Z,7.18
2022-09-11T19:14:13.407Z,6.60
2022-09-11T19:18:14.924Z,6.43
2022-09-11T19:22:16.348Z,5.97
2022-09-11T19:26:27.813Z,6.82
2022-09-11T19:30:29.239Z,6.88
2022-09-11T19:34:31.129Z,7.25
2022-09-11T19:38:36.576Z,6.68
2022-09-11T19:42:37.950Z,7.50
2022-09-11T19:46:40.973Z,7.68
2022-09-11T19:50:43.872Z,8.20
2022-09-11T19:54:45.341Z,8.07
2022-09-11T19:58:46.769Z,7.88
2022-09-11T20:02:56.754Z,7.03
2022-09-11T20:07:11.110Z,7.07
2022-09-11T20:11:35.541Z,6.93
2022-09-11T20:15:56.217Z,6.63
2022-09-11T20:20:10.441Z,6.60
2022-09-11T20:24:15.113Z,7.07
2022-09-11T20:28:23.280Z,7.50
2022-09-11T20:32:28.734Z,7.30
2022-09-11T20:36:39.636Z,7.10
2022-09-11T20:40:53.094Z,7.47
2022-09-11T20:44:55.028Z,8.02
2022-09-11T20:49:08.890Z,7.82
2022-09-11T20:53:10.735Z,7.38
2022-09-11T20:57:18.214Z,6.60
2022-09-11T21:01:49.154Z,7.43
2022-09-11T21:06:00.492Z,8.43
2022-09-11T21:10:02.230Z,7.82
2022-09-11T21:14:04.849Z,8.05
2022-09-11T21:18:08.575Z,7.65
2022-09-11T21:22:12.188Z,7.53
2022-09-11T21:26:15.547Z,8.95
2022-09-11T21:34:32.310Z,8.30
2022-09-11T21:38:33.713Z,7.47
2022-09-11T21:42:39.222Z,7.65
2022-09-11T21:46:43.038Z,6.97
2022-09-11T21:50:48.632Z,7.07
2022-09-11T21:54:59.447Z,6.35
2022-09-11T21:59:01.136Z,7.60
2022-09-11T22:03:03.198Z,9.27
2022-09-11T22:07:05.579Z,7.32
2022-09-11T22:11:09.293Z,8.07
2022-09-11T22:15:13.709Z,7.55
2022-09-11T22:19:19.419Z,8.15
2022-09-11T22:23:23.976Z,7.30
2022-09-11T22:27:27.901Z,7.70
2022-09-11T22:31:29.434Z,6.88
2022-09-11T22:35:34.244Z,7.05
2022-09-11T22:39:41.527Z,7.28
2022-09-11T22:43:45.795Z,7.82
2022-09-11T22:47:47.207Z,8.10
2022-09-11T22:51:49.629Z,7.97
2022-09-11T22:55:54.265Z,7.85
2022-09-11T23:00:00.421Z,7.93
2022-09-11T23:04:02.167Z,6.80
2022-09-11T23:08:07.573Z,5.68
2022-09-11T23:12:09.390Z,6.68
2022-09-11T23:16:13.259Z,7.40
2022-09-11T23:20:14.918Z,6.53
2022-09-11T23:24:16.582Z,6.22
2022-09-11T23:28:20.008Z,6.80
2022-09-11T23:32:24.597Z,7.35
2022-09-11T23:36:26.804Z,7.38
2022-09-11T23:40:33.217Z,6.75
2022-09-11T23:44:36.148Z,8.07
2022-09-11T23:48:37.670Z,6.75
2022-09-11T23:52:42.650Z,6.47
2022-09-11T23:56:44.520Z,7.47
